Terminal Aerodrome Forecast
Issued by NWS

Home | Current Version | Previous Version | Text Only | Print | Product List | Glossary On
Versions: 1 2 3 4 5 6 7 8 9 10 11 12 13 14
000
FTUS43 KAPX 272339
TAFMBL
TAF
KMBL 272339Z 2800/2824 00000KT P6SM FEW200
     FM281200 17003KT P6SM FEW025 OVC140
     FM281600 18007KT P6SM FEW025 OVC110
      AMD LTD TO CLD VIS AND WIND=

USA.gov is the U.S. government's official web portal to all federal, state and local government web resources and services.